createdAt,value
2022-08-09T00:00:06.596Z,27.49
2022-08-09T00:02:34.999Z,27.42
2022-08-09T00:06:16.323Z,27.40
2022-08-09T00:07:48.346Z,27.41
2022-08-09T00:10:17.910Z,27.33
2022-08-09T00:12:47.562Z,27.19
2022-08-09T00:15:18.995Z,27.26
2022-08-09T00:18:07.512Z,27.18
2022-08-09T00:20:32.550Z,27.16
2022-08-09T00:23:08.283Z,27.14
2022-08-09T00:25:51.746Z,27.11
2022-08-09T00:28:18.534Z,27.14
2022-08-09T00:30:45.300Z,26.98
2022-08-09T00:33:12.381Z,26.79
2022-08-09T00:35:43.289Z,26.96
2022-08-09T00:38:10.571Z,27.06
2022-08-09T00:40:37.205Z,27.12
2022-08-09T00:44:14.816Z,27.14
2022-08-09T00:45:54.239Z,27.06
2022-08-09T00:48:20.914Z,27.13
2022-08-09T00:50:52.079Z,27.10
2022-08-09T00:53:24.095Z,27.06
2022-08-09T00:56:04.941Z,27.04
2022-08-09T00:58:36.160Z,27.01
2022-08-09T01:01:03.360Z,27.02
2022-08-09T01:03:30.062Z,26.99
2022-08-09T01:05:59.584Z,26.95
2022-08-09T01:08:48.910Z,26.85
2022-08-09T01:11:16.313Z,26.85
2022-08-09T01:13:58.547Z,26.86
2022-08-09T01:16:26.612Z,26.80
2022-08-09T01:19:01.887Z,26.57
2022-08-09T01:21:41.299Z,26.62
2022-08-09T01:24:11.547Z,26.69
2022-08-09T01:26:39.023Z,26.18
2022-08-09T01:29:05.569Z,26.52
2022-08-09T01:32:44.011Z,26.40
2022-08-09T01:34:18.938Z,26.43
2022-08-09T01:36:50.272Z,25.98
2022-08-09T01:39:16.874Z,25.58
2022-08-09T01:41:53.395Z,24.98
2022-08-09T01:44:22.687Z,24.58
2022-08-09T01:46:50.230Z,24.90
2022-08-09T01:49:21.125Z,24.53
2022-08-09T01:51:53.515Z,24.66
2022-08-09T01:54:20.609Z,24.51
2022-08-09T01:56:51.613Z,24.54
2022-08-09T01:59:18.631Z,24.83
2022-08-09T02:02:00.184Z,25.37
2022-08-09T02:04:27.501Z,25.11
2022-08-09T02:06:58.623Z,24.96
2022-08-09T02:09:25.989Z,25.06
2022-08-09T02:12:09.034Z,24.71
2022-08-09T02:14:35.680Z,24.48
2022-08-09T02:17:29.634Z,24.11
2022-08-09T02:19:52.489Z,24.40
2022-08-09T02:22:27.280Z,24.05
2022-08-09T02:24:58.439Z,23.88
2022-08-09T02:27:27.487Z,24.11
2022-08-09T02:30:10.460Z,24.43
2022-08-09T02:32:38.034Z,24.38
2022-08-09T02:35:17.143Z,24.72
2022-08-09T02:37:45.258Z,24.84
2022-08-09T02:40:12.077Z,24.80
2022-08-09T02:42:38.542Z,24.89
2022-08-09T02:45:06.829Z,24.57
2022-08-09T02:47:57.463Z,24.27
2022-08-09T02:50:21.707Z,24.84
2022-08-09T02:52:55.183Z,24.84
2022-08-09T02:55:23.163Z,24.10
2022-08-09T02:58:35.987Z,23.81
2022-08-09T03:00:58.155Z,24.23
2022-08-09T03:04:12.327Z,24.21
2022-08-09T03:06:12.365Z,24.90
2022-08-09T03:08:39.518Z,24.83
2022-08-09T03:11:10.401Z,24.58
2022-08-09T03:13:43.642Z,24.69
2022-08-09T03:16:23.891Z,24.49
2022-08-09T03:18:50.666Z,23.78
2022-08-09T03:21:19.915Z,24.47
2022-08-09T03:24:03.886Z,24.75
2022-08-09T03:26:31.994Z,24.84
2022-08-09T03:28:59.001Z,25.26
2022-08-09T03:31:26.087Z,25.52
2022-08-09T03:33:54.002Z,25.62
2022-08-09T03:36:27.462Z,25.64
2022-08-09T03:38:54.566Z,25.43
2022-08-09T03:41:29.903Z,25.41
2022-08-09T03:44:09.448Z,25.21
2022-08-09T03:46:39.115Z,25.22
2022-08-09T03:49:08.757Z,25.56
2022-08-09T03:51:43.692Z,25.72
2022-08-09T03:54:29.615Z,25.62
2022-08-09T03:56:59.165Z,25.13
2022-08-09T03:59:27.350Z,25.08
2022-08-09T04:01:54.286Z,24.67
2022-08-09T04:04:21.887Z,25.30
2022-08-09T04:06:51.246Z,25.57
2022-08-09T04:09:41.872Z,25.74
2022-08-09T04:12:07.168Z,25.76
2022-08-09T04:14:53.538Z,25.83
2022-08-09T04:17:29.376Z,25.81
2022-08-09T04:19:56.511Z,25.80
2022-08-09T04:22:23.181Z,25.82
2022-08-09T04:24:51.069Z,25.76
2022-08-09T04:27:22.014Z,25.75
2022-08-09T04:29:49.880Z,25.69
2022-08-09T04:32:16.860Z,25.65
2022-08-09T04:34:54.270Z,25.70
2022-08-09T04:37:24.173Z,25.70
2022-08-09T04:40:10.724Z,25.72
2022-08-09T04:42:37.942Z,25.63
2022-08-09T04:45:04.531Z,25.65
2022-08-09T04:47:45.236Z,25.69
2022-08-09T04:50:20.674Z,25.72
2022-08-09T04:52:58.371Z,25.77
2022-08-09T04:55:26.682Z,25.78
2022-08-09T04:58:01.766Z,25.77
2022-08-09T05:00:36.088Z,25.76
2022-08-09T05:03:12.938Z,25.70
2022-08-09T05:05:52.013Z,25.67
2022-08-09T05:08:30.877Z,25.67
2022-08-09T05:10:57.667Z,25.60
2022-08-09T05:13:32.886Z,25.66
2022-08-09T05:16:00.319Z,25.67
2022-08-09T05:18:38.909Z,25.71
2022-08-09T05:21:23.037Z,25.79
2022-08-09T05:23:59.911Z,26.01
2022-08-09T05:26:37.032Z,26.21
2022-08-09T05:29:17.473Z,26.38
2022-08-09T05:31:56.201Z,26.59
2022-08-09T05:34:29.832Z,26.82
2022-08-09T05:36:58.015Z,27.03
2022-08-09T05:39:28.919Z,26.77
2022-08-09T05:41:56.147Z,26.63
2022-08-09T05:44:32.792Z,26.93
2022-08-09T05:46:59.661Z,27.08
2022-08-09T05:50:24.378Z,27.28
2022-08-09T05:52:13.162Z,27.51
2022-08-09T05:54:40.262Z,27.68
2022-08-09T05:57:07.399Z,28.05
2022-08-09T05:59:39.468Z,27.98
2022-08-09T06:02:08.491Z,27.91
2022-08-09T06:04:36.648Z,27.85
2022-08-09T06:07:03.218Z,27.87
2022-08-09T06:09:54.841Z,28.06
2022-08-09T06:12:16.538Z,28.47
2022-08-09T06:14:43.932Z,28.75
2022-08-09T06:17:12.242Z,28.81
2022-08-09T06:19:40.213Z,28.77
2022-08-09T06:22:15.343Z,28.71
2022-08-09T06:24:42.071Z,28.77
2022-08-09T06:27:08.611Z,28.80
2022-08-09T06:29:48.306Z,28.75
2022-08-09T06:32:53.233Z,28.52
2022-08-09T06:35:09.223Z,28.56
2022-08-09T06:37:53.363Z,28.71
2022-08-09T06:40:24.429Z,28.24
2022-08-09T06:42:51.426Z,28.30
2022-08-09T06:46:06.627Z,28.11
2022-08-09T06:48:04.650Z,28.03
2022-08-09T06:50:34.075Z,28.35
2022-08-09T06:53:02.224Z,28.46
2022-08-09T06:55:28.982Z,28.57
2022-08-09T06:58:02.083Z,28.25
2022-08-09T07:00:52.509Z,28.45
2022-08-09T07:03:17.398Z,28.73
2022-08-09T07:06:02.261Z,28.79
2022-08-09T07:08:30.668Z,28.39
2022-08-09T07:10:57.313Z,28.54
2022-08-09T07:13:28.146Z,28.40
2022-08-09T07:16:41.008Z,28.58
2022-08-09T07:18:43.232Z,28.66
2022-08-09T07:21:10.362Z,28.45
2022-08-09T07:23:46.668Z,28.39
2022-08-09T07:26:24.265Z,28.67
2022-08-09T07:29:09.162Z,28.84
2022-08-09T07:31:45.502Z,28.69
2022-08-09T07:34:19.395Z,28.81
2022-08-09T07:36:48.129Z,28.60
2022-08-09T07:39:20.116Z,28.72
2022-08-09T07:42:05.014Z,28.51
2022-08-09T07:44:51.146Z,28.77
2022-08-09T07:47:18.372Z,28.60
2022-08-09T07:50:04.906Z,28.69
2022-08-09T07:52:35.612Z,28.56
2022-08-09T07:55:08.597Z,28.72
2022-08-09T07:57:36.331Z,28.75
2022-08-09T08:00:08.661Z,28.38
2022-08-09T08:02:36.099Z,28.18
2022-08-09T08:05:17.928Z,28.65
2022-08-09T08:08:43.798Z,28.80
2022-08-09T08:10:34.777Z,28.30
2022-08-09T08:13:03.604Z,28.64
2022-08-09T08:15:30.683Z,28.37
2022-08-09T08:18:02.192Z,28.47
2022-08-09T08:20:32.861Z,28.73
2022-08-09T08:23:03.665Z,28.67
2022-08-09T08:25:39.909Z,28.77
2022-08-09T08:28:14.275Z,28.74
2022-08-09T08:30:41.487Z,28.76
2022-08-09T08:33:12.030Z,28.80
2022-08-09T08:35:59.458Z,28.55
2022-08-09T08:38:25.560Z,28.49
2022-08-09T08:41:13.693Z,28.26
2022-08-09T08:43:41.918Z,28.13
2022-08-09T08:46:32.687Z,28.31
2022-08-09T08:48:55.767Z,28.18
2022-08-09T08:51:25.237Z,28.42
2022-08-09T08:54:03.409Z,28.44
2022-08-09T08:56:32.010Z,28.40
2022-08-09T08:58:59.755Z,28.56
2022-08-09T09:01:44.736Z,28.54
2022-08-09T09:04:12.811Z,28.50
2022-08-09T09:06:39.898Z,28.54
2022-08-09T09:09:21.006Z,28.62
2022-08-09T09:11:53.567Z,28.61
2022-08-09T09:14:20.112Z,28.65
2022-08-09T09:16:49.421Z,28.63
2022-08-09T09:19:37.076Z,28.49
2022-08-09T09:22:04.240Z,28.80
2022-08-09T09:24:32.669Z,28.59
2022-08-09T09:27:01.235Z,28.71
2022-08-09T09:29:36.782Z,28.75
2022-08-09T09:32:15.400Z,28.83
2022-08-09T09:34:44.730Z,28.96
2022-08-09T09:37:13.158Z,28.95
2022-08-09T09:39:54.876Z,28.91
2022-08-09T09:42:24.278Z,28.98
2022-08-09T09:44:51.514Z,28.75
2022-08-09T09:47:21.615Z,28.86
2022-08-09T09:50:07.195Z,28.97
2022-08-09T09:52:54.012Z,29.07
2022-08-09T09:55:31.249Z,29.09
2022-08-09T09:58:18.776Z,29.18
2022-08-09T10:00:50.303Z,29.15
2022-08-09T10:03:22.274Z,29.31
2022-08-09T10:06:03.553Z,29.22
2022-08-09T10:08:31.363Z,29.33
2022-08-09T10:11:06.911Z,28.81
2022-08-09T10:13:50.343Z,29.11
2022-08-09T10:16:56.998Z,29.08
2022-08-09T10:19:04.238Z,29.34
2022-08-09T10:21:30.840Z,29.25
2022-08-09T10:23:59.482Z,29.36
2022-08-09T10:26:26.842Z,29.46
2022-08-09T10:29:31.358Z,29.55
2022-08-09T10:34:33.838Z,29.68
2022-08-09T10:37:03.070Z,29.67
2022-08-09T10:39:30.174Z,29.51
2022-08-09T10:42:07.610Z,29.62
2022-08-09T10:44:36.646Z,29.80
2022-08-09T10:47:20.534Z,30.00
2022-08-09T10:49:54.355Z,29.97
2022-08-09T10:52:21.147Z,30.08
2022-08-09T10:54:47.709Z,30.06
2022-08-09T10:57:17.037Z,30.04
2022-08-09T10:59:57.401Z,29.91
2022-08-09T11:03:11.507Z,29.88
2022-08-09T11:05:11.543Z,30.08
2022-08-09T11:07:58.456Z,30.19
2022-08-09T11:10:29.324Z,30.33
2022-08-09T11:12:57.466Z,30.25
2022-08-09T11:15:24.366Z,30.30
2022-08-09T11:18:03.859Z,30.40
2022-08-09T11:20:30.869Z,30.41
2022-08-09T11:22:59.980Z,30.44
2022-08-09T11:25:44.667Z,30.33
2022-08-09T11:28:30.402Z,30.49
2022-08-09T11:30:59.480Z,30.60
2022-08-09T11:33:26.919Z,30.63
2022-08-09T11:35:53.551Z,30.68
2022-08-09T11:38:22.150Z,30.65
2022-08-09T11:40:49.368Z,30.74
2022-08-09T11:43:19.679Z,30.86
2022-08-09T11:45:48.470Z,30.58
2022-08-09T11:48:25.276Z,30.76
2022-08-09T11:52:49.293Z,30.97
2022-08-09T11:53:58.094Z,31.09
2022-08-09T11:56:34.415Z,31.18
2022-08-09T11:59:09.610Z,31.09
2022-08-09T12:02:34.456Z,31.01
2022-08-09T12:04:32.280Z,31.10
2022-08-09T12:07:04.125Z,31.06
2022-08-09T12:09:37.332Z,31.13
2022-08-09T12:12:04.276Z,31.29
2022-08-09T12:14:36.889Z,31.41
2022-08-09T12:17:27.563Z,31.31
2022-08-09T12:19:59.457Z,31.42
2022-08-09T12:22:26.527Z,31.47
2022-08-09T12:24:53.068Z,31.38
2022-08-09T12:28:59.482Z,31.60
2022-08-09T12:30:36.814Z,31.49
2022-08-09T12:32:52.937Z,31.60
2022-08-09T12:35:21.902Z,31.58
2022-08-09T12:37:51.734Z,31.30
2022-08-09T12:40:19.246Z,31.61
2022-08-09T12:42:45.822Z,31.71
2022-08-09T12:45:34.787Z,31.95
2022-08-09T12:47:59.279Z,31.84
2022-08-09T12:50:34.658Z,31.90
2022-08-09T12:53:08.908Z,31.85
2022-08-09T12:56:12.894Z,32.08
2022-08-09T12:58:31.719Z,32.23
2022-08-09T13:00:58.619Z,32.29
2022-08-09T13:03:54.009Z,32.36
2022-08-09T13:06:16.035Z,32.18
2022-08-09T13:08:43.589Z,32.33
2022-08-09T13:11:25.058Z,32.40
2022-08-09T13:14:36.825Z,32.52
2022-08-09T13:16:39.389Z,32.57
2022-08-09T13:19:11.569Z,32.60
2022-08-09T13:22:36.028Z,32.59
2022-08-09T13:24:54.227Z,32.39
2022-08-09T13:27:12.697Z,32.32
2022-08-09T13:30:02.622Z,32.40
2022-08-09T13:32:28.970Z,32.23
2022-08-09T13:34:55.866Z,32.25
2022-08-09T13:37:51.763Z,32.49
2022-08-09T13:41:52.042Z,32.35
2022-08-09T13:43:03.430Z,32.36
2022-08-09T13:45:32.336Z,32.64
2022-08-09T13:48:18.158Z,32.65
2022-08-09T13:50:44.732Z,32.57
2022-08-09T13:53:16.130Z,32.82
2022-08-09T13:55:44.764Z,32.82
2022-08-09T13:58:14.376Z,32.79
2022-08-09T14:00:49.928Z,31.80
2022-08-09T14:04:05.033Z,31.48
2022-08-09T14:06:19.541Z,32.07
2022-08-09T14:08:53.028Z,32.52
2022-08-09T14:11:19.850Z,32.54
2022-08-09T14:14:23.004Z,31.83
2022-08-09T14:16:35.605Z,31.49
2022-08-09T14:19:06.570Z,31.57
2022-08-09T14:21:33.596Z,31.91
2022-08-09T14:24:10.297Z,31.62
2022-08-09T14:26:45.580Z,32.15
2022-08-09T14:30:04.440Z,31.94
2022-08-09T14:32:11.045Z,31.80
2022-08-09T14:34:41.043Z,32.35
2022-08-09T14:37:09.207Z,31.67
2022-08-09T14:39:45.444Z,31.34
2022-08-09T14:42:30.424Z,31.37
2022-08-09T14:45:01.261Z,31.42
2022-08-09T14:47:44.836Z,31.25
2022-08-09T14:50:16.196Z,32.21
2022-08-09T14:52:43.884Z,31.80
2022-08-09T14:55:20.366Z,31.27
2022-08-09T14:57:47.878Z,30.69
2022-08-09T15:00:15.721Z,31.08
2022-08-09T15:02:42.306Z,30.71
2022-08-09T15:05:10.905Z,30.97
2022-08-09T15:07:43.679Z,31.14
2022-08-09T15:10:14.119Z,31.30
2022-08-09T15:12:44.876Z,31.55
2022-08-09T15:15:12.857Z,31.43
2022-08-09T15:17:42.101Z,31.15
2022-08-09T15:21:53.419Z,31.45
2022-08-09T15:23:02.879Z,31.16
2022-08-09T15:25:45.902Z,31.19
2022-08-09T15:28:26.077Z,31.55
2022-08-09T15:31:00.632Z,31.24
2022-08-09T15:34:17.738Z,30.96
2022-08-09T15:36:16.806Z,31.01
2022-08-09T15:38:43.357Z,30.95
2022-08-09T15:41:10.266Z,31.03
2022-08-09T15:43:37.906Z,31.13
2022-08-09T15:46:28.732Z,30.86
2022-08-09T15:49:21.109Z,30.82
2022-08-09T15:52:02.109Z,31.05
2022-08-09T15:54:33.376Z,31.05
2022-08-09T15:57:09.408Z,31.16
2022-08-09T15:59:36.981Z,31.26
2022-08-09T16:02:04.071Z,31.36
2022-08-09T16:04:32.430Z,30.95
2022-08-09T16:07:01.882Z,30.84
2022-08-09T16:09:32.430Z,31.03
2022-08-09T16:12:16.157Z,31.11
2022-08-09T16:14:42.782Z,30.98
2022-08-09T16:17:12.743Z,30.97
2022-08-09T16:19:49.415Z,30.82
2022-08-09T16:22:30.587Z,30.99
2022-08-09T16:24:57.242Z,31.00
2022-08-09T16:27:27.030Z,30.76
2022-08-09T16:30:00.794Z,31.14
2022-08-09T16:32:35.142Z,30.96
2022-08-09T16:35:02.380Z,31.08
2022-08-09T16:37:53.769Z,30.85
2022-08-09T16:40:29.866Z,30.78
2022-08-09T16:43:04.592Z,30.86
2022-08-09T16:45:31.930Z,30.94
2022-08-09T16:48:38.091Z,30.62
2022-08-09T16:50:59.445Z,30.62
2022-08-09T16:53:34.550Z,30.64
2022-08-09T16:56:05.959Z,31.04
2022-08-09T16:58:36.759Z,30.78
2022-08-09T17:01:03.671Z,30.77
2022-08-09T17:03:30.460Z,31.13
2022-08-09T17:06:07.111Z,30.75
2022-08-09T17:08:43.523Z,30.43
2022-08-09T17:11:24.676Z,30.26
2022-08-09T17:14:08.237Z,30.39
2022-08-09T17:16:52.033Z,30.56
2022-08-09T17:19:18.725Z,30.36
2022-08-09T17:21:47.783Z,30.16
2022-08-09T17:24:30.570Z,29.91
2022-08-09T17:26:57.458Z,29.95
2022-08-09T17:29:24.931Z,30.04
2022-08-09T17:31:59.299Z,29.97
2022-08-09T17:35:01.011Z,30.03
2022-08-09T17:37:19.711Z,30.13
2022-08-09T17:39:53.267Z,29.86
2022-08-09T17:42:51.349Z,29.58
2022-08-09T17:45:27.442Z,29.58
2022-08-09T17:47:54.857Z,29.48
2022-08-09T17:50:25.161Z,29.99
2022-08-09T17:53:04.745Z,29.41
2022-08-09T17:55:49.726Z,29.53
2022-08-09T17:58:18.351Z,29.16
2022-08-09T18:00:48.368Z,29.22
2022-08-09T18:03:17.886Z,29.20
2022-08-09T18:05:45.125Z,28.92
2022-08-09T18:08:22.045Z,29.06
2022-08-09T18:11:00.776Z,29.36
2022-08-09T18:13:43.094Z,29.42
2022-08-09T18:16:16.648Z,29.32
2022-08-09T18:18:49.130Z,29.22
2022-08-09T18:21:22.831Z,29.13
2022-08-09T18:24:12.835Z,28.82
2022-08-09T18:26:38.437Z,28.90
2022-08-09T18:30:42.605Z,29.26
2022-08-09T18:32:00.180Z,29.08
2022-08-09T18:34:26.766Z,28.93
2022-08-09T18:36:53.651Z,28.80
2022-08-09T18:39:20.560Z,28.81
2022-08-09T18:41:53.177Z,29.03
2022-08-09T18:44:20.205Z,28.79
2022-08-09T18:47:07.922Z,28.41
2022-08-09T18:49:43.139Z,28.35
2022-08-09T18:52:13.208Z,28.45
2022-08-09T18:54:49.655Z,28.61
2022-08-09T18:57:22.116Z,28.43
2022-08-09T18:59:52.016Z,28.52
2022-08-09T19:02:30.529Z,28.36
2022-08-09T19:05:14.672Z,28.34
2022-08-09T19:08:04.894Z,28.32
2022-08-09T19:10:37.632Z,28.12
2022-08-09T19:13:20.838Z,28.11
2022-08-09T19:15:51.223Z,28.11
2022-08-09T19:18:33.292Z,27.94
2022-08-09T19:21:05.433Z,27.84
2022-08-09T19:24:32.014Z,28.19
2022-08-09T19:26:29.069Z,27.95
2022-08-09T19:29:01.616Z,28.04
2022-08-09T19:31:28.797Z,27.98
2022-08-09T19:33:58.228Z,27.85
2022-08-09T19:36:30.768Z,27.74
2022-08-09T19:38:59.446Z,27.37
2022-08-09T19:41:33.378Z,27.37
2022-08-09T19:44:03.157Z,27.43
2022-08-09T19:46:35.083Z,27.32
2022-08-09T19:50:05.344Z,27.41
2022-08-09T19:51:55.707Z,27.12
2022-08-09T19:54:23.510Z,27.27
2022-08-09T19:56:51.692Z,27.36
2022-08-09T19:59:57.701Z,27.18
2022-08-09T20:02:18.221Z,27.33
2022-08-09T20:04:55.325Z,27.40
2022-08-09T20:07:24.211Z,27.11
2022-08-09T20:09:51.071Z,27.39
2022-08-09T20:12:30.223Z,26.93
2022-08-09T20:15:04.749Z,26.86
2022-08-09T20:17:54.140Z,26.86
2022-08-09T20:20:22.122Z,26.76
2022-08-09T20:22:51.191Z,26.82
2022-08-09T20:25:23.613Z,27.04
2022-08-09T20:27:50.133Z,26.63
2022-08-09T20:30:17.895Z,26.58
2022-08-09T20:32:48.526Z,26.57
2022-08-09T20:35:19.357Z,26.85
2022-08-09T20:38:22.425Z,26.75
2022-08-09T20:40:32.497Z,26.67
2022-08-09T20:43:18.445Z,26.78
2022-08-09T20:46:01.974Z,26.52
2022-08-09T20:48:32.780Z,26.42
2022-08-09T20:51:00.781Z,26.39
2022-08-09T20:53:36.460Z,26.11
2022-08-09T20:56:04.494Z,26.36
2022-08-09T20:58:32.712Z,26.10
2022-08-09T21:01:14.368Z,25.88
2022-08-09T21:05:48.879Z,26.26
2022-08-09T21:06:33.781Z,26.06
2022-08-09T21:09:02.034Z,25.92
2022-08-09T21:14:16.689Z,26.13
2022-08-09T21:16:44.159Z,25.90
2022-08-09T21:20:18.551Z,25.86
2022-08-09T21:22:02.809Z,25.81
2022-08-09T21:24:32.484Z,26.01
2022-08-09T21:26:59.353Z,25.82
2022-08-09T21:29:26.138Z,25.77
2022-08-09T21:31:53.109Z,25.80
2022-08-09T21:34:29.525Z,25.63
2022-08-09T21:36:56.485Z,25.65
2022-08-09T21:39:27.741Z,25.51
2022-08-09T21:42:04.668Z,25.42
2022-08-09T21:44:37.172Z,25.50
2022-08-09T21:47:04.501Z,25.44
2022-08-09T21:49:40.054Z,25.38
2022-08-09T21:52:17.161Z,25.51
2022-08-09T21:54:46.135Z,25.22
2022-08-09T21:57:37.034Z,25.41
2022-08-09T22:00:02.075Z,25.22
2022-08-09T22:02:36.526Z,25.42
2022-08-09T22:05:16.933Z,25.42
2022-08-09T22:07:52.191Z,25.37
2022-08-09T22:10:23.177Z,25.25
2022-08-09T22:12:50.959Z,25.22
2022-08-09T22:15:18.747Z,25.20
2022-08-09T22:17:49.804Z,25.29
2022-08-09T22:20:17.033Z,25.48
2022-08-09T22:22:48.833Z,25.33
2022-08-09T22:26:06.103Z,25.42
2022-08-09T22:28:07.653Z,26.29
2022-08-09T22:30:34.485Z,26.11
2022-08-09T22:33:03.125Z,26.20
2022-08-09T22:36:01.219Z,26.39
2022-08-09T22:38:22.844Z,26.41
2022-08-09T22:40:58.122Z,26.83
2022-08-09T22:44:02.605Z,26.58
2022-08-09T22:48:11.136Z,27.06
2022-08-09T22:48:59.934Z,27.24
2022-08-09T22:51:28.610Z,27.11
2022-08-09T22:54:02.230Z,27.48
2022-08-09T22:56:34.380Z,27.81
2022-08-09T22:59:01.185Z,28.01
2022-08-09T23:01:32.923Z,28.06
2022-08-09T23:04:05.133Z,28.30
2022-08-09T23:06:36.122Z,28.06
2022-08-09T23:09:02.957Z,28.12
2022-08-09T23:11:29.493Z,28.27
2022-08-09T23:13:56.070Z,28.05
2022-08-09T23:16:22.804Z,28.18
2022-08-09T23:18:49.368Z,28.33
2022-08-09T23:21:25.166Z,28.37
2022-08-09T23:24:01.632Z,28.32
2022-08-09T23:26:32.386Z,28.32
2022-08-09T23:28:59.222Z,28.29
2022-08-09T23:31:26.051Z,28.26
2022-08-09T23:33:53.276Z,27.99
2022-08-09T23:36:19.947Z,28.06
2022-08-09T23:38:48.927Z,27.69
2022-08-09T23:41:28.627Z,27.45
2022-08-09T23:43:56.286Z,27.72
2022-08-09T23:46:22.815Z,27.87
2022-08-09T23:48:49.570Z,27.78
2022-08-09T23:51:18.549Z,27.89
2022-08-09T23:53:45.161Z,27.92
2022-08-09T23:56:13.953Z,27.92
2022-08-09T23:58:41.229Z,27.91
